Main page
METAR-TAF:

METAR-TAF

Airports :

Port Sudan New International Airport

Port Sudan, Sudan

latitude: 19-26N, longitude: 037-14E, elevation: 138 m

METAR: missing

Time: 19:52 (17:52 UTC)

Forecast

The report was made 52 minutes ago, at 17:00 UTC
Forecast valid from 16 at 18 UTC to 17 at 24 UTC
Wind 10 kt from the North with gusts up to 20 kt
Visibility 10 km or more
no clouds below 1500 m and no cumulonimbus
Becoming
from 16 at 21 UTC to 16 at 23 UTC
Wind 6 kt from the Northwest

TAF: HSPN 161700Z 1618/1724 36010G20KT CAVOK BECMG 1621/1623 32006KT

Weather observations and forecasts of more than 4000 airports (METAR and TAF reports).

The available stations are represented by yellow and red dots on the map.

Hover mouse over dot to see the name of the station.

Then click to see weather observations and forecasts.

To change the map : click on the green buttons with a black cross to zoom in, on the green button with a dash to zoom out, or on the green arrows for adjacent maps.


METAR-TAF: